Time;durP1;ratioP1;P1;durP2;ratioP2;P2;SDS_P1;SDS_P2;PMS_P1;PMS_P2;Temp;Humidity;BMP_temperature;BMP_pressure;BME280_temperature;BME280_humidity;BME280_pressure;Samples;Min_cycle;Max_cycle;Signal;HPM_P1;HPM_P2
2021/01/07 00:00:22;;;;;;;19.05;10.23;;;-0.50;99.90;;;;;;5038532;28;20132;-65
2021/01/07 00:02:47;;;;;;;15.88;9.57;;;-0.50;99.90;;;;;;5038787;28;20068;-65
2021/01/07 00:05:13;;;;;;;18.35;9.95;;;-0.50;99.90;;;;;;5039222;28;20037;-65
2021/01/07 00:07:39;;;;;;;19.73;9.93;;;-0.40;99.90;;;;;;5037968;28;20037;-65
2021/01/07 00:10:05;;;;;;;18.30;10.07;;;-0.30;99.90;;;;;;5038658;28;20092;-65
2021/01/07 00:12:31;;;;;;;19.15;10.20;;;-0.20;99.90;;;;;;5038730;28;20348;-65
2021/01/07 00:14:56;;;;;;;15.65;8.93;;;-0.30;99.90;;;;;;5030240;28;20037;-65
2021/01/07 00:17:22;;;;;;;16.88;9.45;;;-0.30;99.90;;;;;;5025293;28;20046;-65
2021/01/07 00:19:47;;;;;;;16.27;9.13;;;-0.30;99.90;;;;;;5025535;28;20030;-65
2021/01/07 00:22:13;;;;;;;16.42;8.70;;;-0.20;99.90;;;;;;5026013;28;20448;-66
2021/01/07 00:24:38;;;;;;;14.05;8.88;;;-0.30;99.90;;;;;;5025159;28;20033;-65
2021/01/07 00:27:04;;;;;;;16.08;8.07;;;-0.20;99.90;;;;;;5025834;28;20060;-65
2021/01/07 00:29:30;;;;;;;13.30;8.40;;;-0.30;99.90;;;;;;5025691;28;20045;-65
2021/01/07 00:31:55;;;;;;;12.00;7.13;;;-0.20;99.90;;;;;;5025495;28;20045;-65
2021/01/07 00:34:21;;;;;;;14.00;8.38;;;-0.20;99.90;;;;;;5024820;28;20073;-65
2021/01/07 00:36:53;;;;;;;12.30;7.32;;;-0.30;99.90;;;;;;5025285;28;20051;-65
2021/01/07 00:39:18;;;;;;;13.40;7.60;;;-0.20;99.90;;;;;;5024764;28;20037;-65
2021/01/07 00:41:44;;;;;;;11.70;6.65;;;-0.20;99.90;;;;;;5024655;28;20087;-65
2021/01/07 00:44:09;;;;;;;14.20;6.25;;;-0.20;99.90;;;;;;5024974;28;20040;-65
2021/01/07 00:46:35;;;;;;;10.38;5.57;;;-0.30;99.90;;;;;;5013395;28;20053;-65
2021/01/07 00:49:00;;;;;;;10.95;5.50;;;-0.20;99.90;;;;;;5004309;28;20042;-65
2021/01/07 00:51:32;;;;;;;11.90;6.60;;;-0.20;99.90;;;;;;5006060;28;20049;-65
2021/01/07 00:53:58;;;;;;;9.77;6.13;;;-0.20;99.90;;;;;;5001525;28;20223;-65
2021/01/07 00:56:24;;;;;;;9.68;6.03;;;-0.20;99.90;;;;;;5006223;28;20724;-65
2021/01/07 00:58:49;;;;;;;11.95;6.18;;;-0.20;99.90;;;;;;5005776;28;20026;-65
2021/01/07 01:01:15;;;;;;;10.40;5.70;;;-0.10;99.90;;;;;;5005618;28;20144;-65
2021/01/07 01:03:40;;;;;;;12.73;5.80;;;-0.10;99.90;;;;;;5005791;28;20076;-65
2021/01/07 01:06:06;;;;;;;9.27;5.35;;;-0.10;99.90;;;;;;5005900;28;20046;-65
2021/01/07 01:08:31;;;;;;;11.38;6.47;;;-0.20;99.90;;;;;;5007239;28;20429;-65
2021/01/07 01:10:57;;;;;;;9.63;5.90;;;-0.20;99.90;;;;;;5005667;28;20060;-65
2021/01/07 01:13:22;;;;;;;10.80;5.75;;;-0.30;99.90;;;;;;5005410;28;20045;-65
2021/01/07 01:15:48;;;;;;;9.88;5.72;;;-0.30;99.90;;;;;;5005205;28;20078;-65
2021/01/07 01:18:13;;;;;;;10.40;5.88;;;-0.30;99.90;;;;;;5009215;28;20037;-65
2021/01/07 01:20:39;;;;;;;9.90;5.18;;;-0.40;99.90;;;;;;5005004;28;20095;-65
2021/01/07 01:23:06;;;;;;;8.98;4.88;;;-0.40;99.90;;;;;;5006164;28;20410;-65
2021/01/07 01:25:32;;;;;;;11.30;6.15;;;-0.30;99.90;;;;;;5004434;28;20038;-65
2021/01/07 01:27:58;;;;;;;11.82;6.22;;;-0.30;99.90;;;;;;5003332;28;20045;-65
2021/01/07 01:30:24;;;;;;;9.73;5.50;;;-0.40;99.90;;;;;;5004500;28;20065;-65
2021/01/07 01:32:49;;;;;;;8.95;5.40;;;-0.40;99.90;;;;;;5005084;28;20545;-65
2021/01/07 01:35:15;;;;;;;12.88;6.03;;;-0.40;99.90;;;;;;5004892;28;20129;-64
2021/01/07 01:37:43;;;;;;;9.52;4.90;;;-0.30;99.90;;;;;;5005447;28;20034;-65
2021/01/07 01:40:10;;;;;;;10.77;5.82;;;-0.20;99.90;;;;;;5004646;28;20529;-65
2021/01/07 01:42:36;;;;;;;9.02;5.40;;;-0.20;99.90;;;;;;5005227;28;20049;-65
2021/01/07 01:45:03;;;;;;;11.60;6.07;;;-0.30;99.90;;;;;;5004461;28;20042;-65
2021/01/07 01:47:29;;;;;;;11.23;5.97;;;-0.30;99.90;;;;;;5003641;28;20042;-65
2021/01/07 01:49:55;;;;;;;10.63;6.22;;;-0.30;99.90;;;;;;5004115;28;20703;-65
2021/01/07 01:52:22;;;;;;;12.30;6.38;;;-0.40;99.90;;;;;;5005120;28;20377;-65
2021/01/07 01:54:48;;;;;;;12.50;6.85;;;-0.40;99.90;;;;;;5004490;28;20136;-65
2021/01/07 01:57:15;;;;;;;14.88;8.00;;;-0.50;99.90;;;;;;5004891;28;20133;-66
2021/01/07 01:59:41;;;;;;;13.85;8.20;;;-0.40;99.90;;;;;;5004753;28;20137;-65
2021/01/07 02:02:15;;;;;;;18.92;8.15;;;-0.50;99.90;;;;;;5003347;28;20103;-65
2021/01/07 02:04:41;;;;;;;14.43;7.13;;;-0.50;99.90;;;;;;5004802;28;20084;-65
2021/01/07 02:07:11;;;;;;;13.95;7.97;;;-0.50;99.90;;;;;;5004378;28;20085;-65
2021/01/07 02:09:38;;;;;;;14.73;8.15;;;-0.40;99.90;;;;;;5003969;28;20084;-65
2021/01/07 02:12:04;;;;;;;14.32;8.15;;;-0.40;99.90;;;;;;5004836;28;20108;-65
2021/01/07 02:14:29;;;;;;;15.07;8.85;;;-0.40;99.90;;;;;;5004367;28;20042;-65
2021/01/07 02:16:55;;;;;;;15.25;9.10;;;-0.30;99.90;;;;;;5004227;28;20052;-65
2021/01/07 02:19:22;;;;;;;17.67;8.65;;;-0.40;99.90;;;;;;5004244;28;20073;-65
2021/01/07 02:21:48;;;;;;;12.50;7.25;;;-0.40;99.90;;;;;;5004846;28;20029;-65
2021/01/07 02:24:14;;;;;;;13.50;7.50;;;-0.40;99.90;;;;;;5003468;28;20387;-65
2021/01/07 02:26:40;;;;;;;12.70;8.00;;;-0.30;99.90;;;;;;5005076;28;20038;-65
2021/01/07 02:29:06;;;;;;;16.92;9.15;;;-0.30;99.90;;;;;;5004455;28;20046;-65
2021/01/07 02:31:31;;;;;;;15.27;8.60;;;-0.30;99.90;;;;;;5003094;28;20053;-65
2021/01/07 02:33:57;;;;;;;13.80;8.15;;;-0.30;99.90;;;;;;5004907;28;20437;-65
2021/01/07 02:36:22;;;;;;;15.98;8.35;;;-0.40;99.90;;;;;;5004456;28;20041;-65
2021/01/07 02:38:49;;;;;;;14.88;8.52;;;-0.40;99.90;;;;;;5003553;28;20048;-65
2021/01/07 02:41:15;;;;;;;16.27;8.63;;;-0.30;99.90;;;;;;5004371;28;20042;-66
2021/01/07 02:43:41;;;;;;;20.65;8.82;;;-0.40;99.90;;;;;;5003798;28;20169;-66
2021/01/07 02:46:07;;;;;;;14.85;8.35;;;-0.40;99.90;;;;;;5010373;28;20069;-65
2021/01/07 02:48:33;;;;;;;13.90;8.07;;;-0.40;99.90;;;;;;5023702;28;20042;-65
2021/01/07 02:50:58;;;;;;;16.20;8.27;;;-0.40;99.90;;;;;;5010135;28;20042;-65
2021/01/07 02:53:24;;;;;;;14.27;8.60;;;-0.40;99.90;;;;;;5005725;28;20477;-65
2021/01/07 02:55:50;;;;;;;13.52;8.05;;;-0.40;99.90;;;;;;5023966;28;20108;-66
2021/01/07 02:58:15;;;;;;;12.60;7.00;;;-0.30;99.90;;;;;;5024032;28;20167;-65
2021/01/07 03:00:41;;;;;;;12.88;7.65;;;-0.30;99.90;;;;;;5019719;28;20037;-65
2021/01/07 03:03:06;;;;;;;14.85;8.07;;;-0.30;99.90;;;;;;5004087;28;20113;-65
2021/01/07 03:05:32;;;;;;;11.70;7.03;;;-0.40;99.90;;;;;;5003880;28;20555;-65
2021/01/07 03:07:58;;;;;;;12.55;7.38;;;-0.40;99.90;;;;;;5004239;28;20509;-65
2021/01/07 03:10:24;;;;;;;10.65;6.57;;;-0.30;99.90;;;;;;5004825;28;20072;-65
2021/01/07 03:12:49;;;;;;;11.23;6.57;;;-0.40;99.90;;;;;;5004568;28;20135;-65
2021/01/07 03:15:15;;;;;;;12.52;6.50;;;-0.30;99.90;;;;;;5002806;28;20042;-65
2021/01/07 03:17:40;;;;;;;11.48;6.53;;;-0.30;99.90;;;;;;5004207;28;20533;-65
2021/01/07 03:20:11;;;;;;;10.40;6.25;;;-0.30;99.90;;;;;;5004718;28;20046;-65
2021/01/07 03:22:37;;;;;;;14.60;6.65;;;-0.30;99.90;;;;;;5004085;28;20054;-65
2021/01/07 03:25:03;;;;;;;12.05;6.55;;;-0.40;99.90;;;;;;4992591;28;20066;-65
2021/01/07 03:27:29;;;;;;;12.20;6.15;;;-0.40;99.90;;;;;;5004589;28;20144;-65
2021/01/07 03:29:54;;;;;;;10.05;6.30;;;-0.40;99.90;;;;;;5002028;28;20843;-65
2021/01/07 03:32:22;;;;;;;9.00;5.57;;;-0.40;99.90;;;;;;5002969;28;20050;-65
2021/01/07 03:34:48;;;;;;;9.23;5.97;;;-0.40;99.90;;;;;;5003595;28;20042;-65
2021/01/07 03:37:13;;;;;;;10.32;5.80;;;-0.40;99.90;;;;;;5002733;28;20045;-65
2021/01/07 03:39:39;;;;;;;9.82;5.82;;;-0.40;99.90;;;;;;5003097;28;20042;-65
2021/01/07 03:42:04;;;;;;;15.40;7.38;;;-0.40;99.90;;;;;;5003037;28;20037;-65
2021/01/07 03:44:30;;;;;;;10.80;6.35;;;-0.40;99.90;;;;;;5002819;28;20544;-65
2021/01/07 03:46:55;;;;;;;10.70;6.07;;;-0.50;99.90;;;;;;5002013;28;20050;-65
2021/01/07 03:49:21;;;;;;;10.68;6.00;;;-0.40;99.90;;;;;;5002912;28;20053;-66
2021/01/07 03:51:46;;;;;;;13.68;5.50;;;-0.40;99.90;;;;;;5006260;28;20104;-65
2021/01/07 03:54:12;;;;;;;11.68;6.05;;;-0.40;99.90;;;;;;5006503;28;20045;-66
2021/01/07 03:56:38;;;;;;;9.18;6.03;;;-0.40;99.90;;;;;;5007104;28;20409;-66
2021/01/07 03:59:03;;;;;;;9.55;5.65;;;-0.40;99.90;;;;;;5006412;28;20026;-65
2021/01/07 04:01:29;;;;;;;10.02;5.85;;;-0.40;99.90;;;;;;5006810;28;20049;-65
2021/01/07 04:03:54;;;;;;;14.20;6.40;;;-0.30;99.90;;;;;;5005812;28;20045;-66
2021/01/07 04:06:20;;;;;;;11.13;6.20;;;-0.50;99.90;;;;;;5006963;28;20038;-63
2021/01/07 04:08:45;;;;;;;11.27;6.88;;;-0.40;99.90;;;;;;5007444;28;20052;-63
2021/01/07 04:11:11;;;;;;;14.02;6.85;;;-0.40;99.90;;;;;;5006270;28;20633;-63
2021/01/07 04:13:37;;;;;;;13.68;7.20;;;-0.50;99.90;;;;;;5007539;28;20053;-63
2021/01/07 04:16:02;;;;;;;14.25;7.88;;;-0.40;99.90;;;;;;5013571;28;20072;-63
2021/01/07 04:18:28;;;;;;;14.90;7.28;;;-0.40;99.90;;;;;;5026607;28;20084;-63
2021/01/07 04:20:53;;;;;;;15.05;8.10;;;-0.30;99.90;;;;;;5026291;28;20048;-63
2021/01/07 04:23:19;;;;;;;12.65;7.03;;;-0.30;99.90;;;;;;5026396;28;20045;-63
2021/01/07 04:25:45;;;;;;;17.63;8.40;;;-0.40;99.90;;;;;;5026690;28;20068;-63
2021/01/07 04:28:10;;;;;;;16.08;8.82;;;-0.30;99.90;;;;;;5027057;28;20333;-63
2021/01/07 04:30:36;;;;;;;18.65;8.35;;;-0.30;99.90;;;;;;5025587;28;20052;-63
2021/01/07 04:33:02;;;;;;;18.80;9.32;;;-0.30;99.90;;;;;;5026357;28;20118;-63
2021/01/07 04:35:28;;;;;;;19.35;9.57;;;-0.30;99.90;;;;;;5026708;28;20876;-63
2021/01/07 04:37:53;;;;;;;22.23;9.90;;;-0.30;99.90;;;;;;5027009;28;20030;-63
2021/01/07 04:40:19;;;;;;;23.77;10.45;;;-0.30;99.90;;;;;;5025551;28;20061;-63
2021/01/07 04:42:44;;;;;;;21.45;10.23;;;-0.40;99.90;;;;;;5026665;28;20197;-63
2021/01/07 04:45:12;;;;;;;20.33;10.30;;;-0.40;99.90;;;;;;5024883;28;20037;-63
2021/01/07 04:47:39;;;;;;;20.38;10.45;;;-0.30;99.90;;;;;;5026391;28;20500;-63
2021/01/07 04:50:05;;;;;;;22.90;10.57;;;-0.30;99.90;;;;;;5025694;28;20049;-63
2021/01/07 04:52:31;;;;;;;20.95;10.63;;;-0.40;99.90;;;;;;5025698;28;20047;-63
2021/01/07 04:54:57;;;;;;;20.85;9.68;;;-0.40;99.90;;;;;;5026311;28;20050;-63
2021/01/07 04:57:23;;;;;;;23.52;9.90;;;-0.50;99.90;;;;;;5026096;28;20072;-63
2021/01/07 04:59:49;;;;;;;22.33;10.40;;;-0.50;99.90;;;;;;5024906;28;20065;-63
2021/01/07 05:02:14;;;;;;;21.05;10.32;;;-0.60;99.90;;;;;;5009669;28;20034;-63
2021/01/07 05:04:51;;;;;;;16.55;8.73;;;-0.60;99.90;;;;;;5006047;28;20071;-63
2021/01/07 05:07:20;;;;;;;20.00;9.20;;;-0.50;99.90;;;;;;5006390;28;20133;-63
2021/01/07 05:09:47;;;;;;;21.88;9.77;;;-0.50;99.90;;;;;;5006264;28;20038;-64
2021/01/07 05:12:13;;;;;;;18.77;9.35;;;-0.50;99.90;;;;;;5005939;28;20042;-64
2021/01/07 05:14:46;;;;;;;17.98;8.60;;;-0.40;99.90;;;;;;5006123;28;20050;-63
2021/01/07 05:17:16;;;;;;;19.05;8.05;;;-0.40;99.90;;;;;;5004777;28;20049;-63
2021/01/07 05:19:41;;;;;;;19.48;8.82;;;-0.40;99.90;;;;;;5006222;28;20050;-63
2021/01/07 05:22:08;;;;;;;17.10;8.15;;;-0.30;99.90;;;;;;5006486;28;20125;-65
2021/01/07 05:24:34;;;;;;;21.02;7.85;;;-0.30;99.90;;;;;;5006097;28;20042;-61
2021/01/07 05:27:08;;;;;;;19.42;8.93;;;-0.40;99.90;;;;;;5008570;28;20700;-61
2021/01/07 05:29:35;;;;;;;16.48;8.15;;;-0.40;99.90;;;;;;4999537;28;20045;-61
2021/01/07 05:32:00;;;;;;;17.38;8.43;;;-0.40;99.90;;;;;;5020051;28;20030;-61
2021/01/07 05:34:26;;;;;;;16.33;7.75;;;-0.40;99.90;;;;;;5024923;28;20509;-60
2021/01/07 05:36:57;;;;;;;17.10;9.15;;;-0.40;99.90;;;;;;5014847;28;20569;-60
2021/01/07 05:39:23;;;;;;;17.55;8.10;;;-0.40;99.90;;;;;;5005448;28;20904;-59
2021/01/07 05:41:52;;;;;;;21.58;8.25;;;-0.30;99.90;;;;;;5005742;28;20088;-60
2021/01/07 05:44:22;;;;;;;19.13;8.30;;;-0.30;99.90;;;;;;5005629;28;20053;-57
2021/01/07 05:46:47;;;;;;;18.35;8.23;;;-0.30;99.90;;;;;;5004640;28;20445;-59
2021/01/07 05:49:19;;;;;;;17.85;8.02;;;-0.40;99.90;;;;;;5005364;28;20117;-59
2021/01/07 05:51:47;;;;;;;19.20;8.88;;;-0.30;99.90;;;;;;5004953;28;20491;-58
2021/01/07 05:54:14;;;;;;;15.65;8.02;;;-0.30;99.90;;;;;;5005383;28;20164;-60
2021/01/07 05:56:40;;;;;;;18.77;8.10;;;-0.40;99.90;;;;;;5003496;28;20038;-58
2021/01/07 05:59:08;;;;;;;20.33;9.18;;;-0.50;99.90;;;;;;5004520;28;20437;-60
2021/01/07 06:01:34;;;;;;;19.40;8.52;;;-0.50;99.90;;;;;;5005152;28;20042;-58
2021/01/07 06:04:04;;;;;;;15.98;7.90;;;-0.50;99.90;;;;;;5004715;28;20052;-60
2021/01/07 06:06:31;;;;;;;20.42;8.73;;;-0.50;99.90;;;;;;5005541;28;20099;-60
2021/01/07 06:08:56;;;;;;;18.10;8.48;;;-0.50;99.90;;;;;;5004777;28;20042;-59
2021/01/07 06:11:25;;;;;;;17.25;8.88;;;-0.40;99.90;;;;;;5003905;28;20055;-58
2021/01/07 06:13:54;;;;;;;15.13;8.45;;;-0.40;99.90;;;;;;5004459;28;20092;-61
2021/01/07 06:16:21;;;;;;;18.88;9.55;;;-0.40;99.90;;;;;;5003966;28;20046;-58
2021/01/07 06:18:47;;;;;;;17.45;9.80;;;-0.40;99.90;;;;;;5003091;28;20118;-59
2021/01/07 06:21:13;;;;;;;19.00;8.98;;;-0.30;99.90;;;;;;5004716;28;20050;-59
2021/01/07 06:23:44;;;;;;;17.83;9.13;;;-0.40;99.90;;;;;;5004218;28;20109;-60
2021/01/07 06:26:28;;;;;;;16.02;8.50;;;-0.40;99.90;;;;;;5003833;28;20120;-58
2021/01/07 06:28:59;;;;;;;17.40;8.68;;;-0.30;99.90;;;;;;5004095;28;20034;-59
2021/01/07 06:31:37;;;;;;;21.38;10.45;;;-0.40;99.90;;;;;;5004482;28;20095;-58
2021/01/07 06:34:06;;;;;;;21.27;10.00;;;-0.40;99.90;;;;;;5004905;28;20041;-60
2021/01/07 06:36:41;;;;;;;22.27;10.73;;;-0.40;99.90;;;;;;5003976;28;20045;-60
2021/01/07 06:39:07;;;;;;;19.77;9.48;;;-0.30;99.90;;;;;;5004534;28;20478;-60
2021/01/07 06:41:33;;;;;;;19.33;9.68;;;-0.40;99.90;;;;;;5019264;28;20034;-60
2021/01/07 06:43:59;;;;;;;20.08;9.98;;;-0.40;99.90;;;;;;4999584;28;20045;-61
2021/01/07 06:46:43;;;;;;;31.45;9.77;;;-0.40;99.90;;;;;;5003662;28;20689;-59
2021/01/07 06:49:20;;;;;;;24.50;9.90;;;-0.40;99.90;;;;;;5003214;28;20041;-57
2021/01/07 06:52:00;;;;;;;20.88;10.27;;;-0.40;99.90;;;;;;5004386;28;20065;-59
2021/01/07 06:54:30;;;;;;;21.65;10.25;;;-0.30;99.90;;;;;;5004306;28;20103;-60
2021/01/07 06:56:55;;;;;;;16.77;9.23;;;-0.30;99.90;;;;;;5004358;28;20034;-61
2021/01/07 06:59:22;;;;;;;22.85;10.30;;;-0.30;99.90;;;;;;5000961;28;20073;-61
2021/01/07 07:01:54;;;;;;;17.80;9.07;;;-0.20;99.90;;;;;;5000792;28;20043;-56
2021/01/07 07:04:25;;;;;;;18.23;9.60;;;-0.30;99.90;;;;;;5004100;28;20224;-59
2021/01/07 07:06:57;;;;;;;21.63;10.07;;;-0.20;99.90;;;;;;5003768;28;20099;-58
2021/01/07 07:09:25;;;;;;;23.50;10.52;;;-0.20;99.90;;;;;;5001948;28;20188;-60
2021/01/07 07:11:55;;;;;;;18.45;10.05;;;-0.20;99.90;;;;;;4997623;28;20041;-60
2021/01/07 07:14:22;;;;;;;20.85;10.00;;;-0.20;99.90;;;;;;5005068;28;20458;-62
2021/01/07 07:16:48;;;;;;;21.20;10.13;;;-0.30;99.90;;;;;;5003292;28;20050;-66
2021/01/07 07:19:25;;;;;;;19.23;9.43;;;-0.30;99.90;;;;;;5004846;28;20535;-63
2021/01/07 07:22:00;;;;;;;17.52;8.77;;;-0.20;99.90;;;;;;5004343;28;20046;-64
2021/01/07 07:24:39;;;;;;;24.35;10.88;;;-0.20;99.90;;;;;;5003738;28;20075;-64
2021/01/07 07:27:09;;;;;;;23.98;10.82;;;-0.20;99.90;;;;;;5007592;28;20046;-62
2021/01/07 07:29:36;;;;;;;19.55;10.15;;;-0.30;99.90;;;;;;5007162;28;20046;-64
2021/01/07 07:32:24;;;;;;;25.33;11.38;;;-0.30;99.90;;;;;;5023069;28;20183;-63
2021/01/07 07:34:50;;;;;;;22.67;10.50;;;-0.20;99.90;;;;;;5028540;28;20029;-64
2021/01/07 07:37:20;;;;;;;24.55;11.30;;;-0.20;99.90;;;;;;5042804;28;20486;-63
2021/01/07 07:39:50;;;;;;;19.35;10.00;;;-0.20;99.90;;;;;;5028211;28;20046;-63
2021/01/07 07:42:16;;;;;;;20.85;11.20;;;-0.10;99.90;;;;;;5027751;28;20037;-63
2021/01/07 07:44:42;;;;;;;25.83;11.15;;;-0.10;99.90;;;;;;5036215;28;20179;-64
2021/01/07 07:47:08;;;;;;;20.95;10.80;;;-0.10;99.90;;;;;;5026866;28;20169;-64
2021/01/07 07:49:33;;;;;;;25.02;11.68;;;-0.20;99.90;;;;;;5026903;28;20045;-64
2021/01/07 07:51:59;;;;;;;24.33;11.02;;;-0.20;99.90;;;;;;5027912;28;20037;-64
2021/01/07 07:54:25;;;;;;;26.38;11.90;;;-0.20;99.90;;;;;;5026719;28;20049;-64
2021/01/07 07:56:58;;;;;;;21.52;10.75;;;-0.20;99.90;;;;;;5028411;28;20049;-64
2021/01/07 07:59:24;;;;;;;24.08;10.60;;;-0.20;99.90;;;;;;5026191;28;20076;-64
2021/01/07 08:01:52;;;;;;;25.92;10.98;;;-0.20;99.90;;;;;;5027068;28;20065;-62
2021/01/07 08:04:19;;;;;;;23.75;11.02;;;-0.10;99.90;;;;;;5027021;28;20049;-63
2021/01/07 08:06:46;;;;;;;24.20;10.93;;;-0.10;99.90;;;;;;5027718;28;20033;-62
2021/01/07 08:09:14;;;;;;;19.73;11.13;;;-0.10;99.90;;;;;;5027322;28;20160;-63
2021/01/07 08:11:43;;;;;;;27.15;11.32;;;-0.10;99.90;;;;;;5026900;28;20044;-63
2021/01/07 08:14:11;;;;;;;22.27;9.82;;;0.00;99.90;;;;;;5017740;28;20041;-62
2021/01/07 08:16:38;;;;;;;24.27;11.30;;;-0.10;99.90;;;;;;5025335;28;20051;-61
2021/01/07 08:19:23;;;;;;;23.90;11.20;;;0.00;99.90;;;;;;5026446;28;20049;-62
2021/01/07 08:21:53;;;;;;;33.60;15.02;;;0.00;99.90;;;;;;5025828;28;20469;-61
2021/01/07 08:24:22;;;;;;;31.35;16.75;;;0.10;99.90;;;;;;5025622;28;20041;-62
2021/01/07 08:27:01;;;;;;;21.90;11.75;;;0.20;99.90;;;;;;5026123;28;20042;-61
2021/01/07 08:29:28;;;;;;;23.42;11.57;;;0.20;99.90;;;;;;5026107;28;20041;-61
2021/01/07 08:31:57;;;;;;;21.83;11.85;;;0.30;99.90;;;;;;5025590;28;20092;-60
2021/01/07 08:34:23;;;;;;;23.95;12.30;;;0.30;99.90;;;;;;5025871;28;20135;-60
2021/01/07 08:36:49;;;;;;;23.35;11.15;;;0.40;99.90;;;;;;5025120;28;20095;-62
2021/01/07 08:39:15;;;;;;;43.13;20.23;;;0.40;99.90;;;;;;5025960;28;20045;-61
2021/01/07 08:41:44;;;;;;;30.40;13.07;;;0.40;99.90;;;;;;5025680;28;20047;-61
2021/01/07 08:44:10;;;;;;;28.10;13.80;;;0.40;99.90;;;;;;5026136;28;20037;-61
2021/01/07 08:46:41;;;;;;;24.55;11.68;;;0.40;99.90;;;;;;5025355;28;20041;-61
2021/01/07 08:49:14;;;;;;;24.63;12.40;;;0.50;99.90;;;;;;5025354;28;20111;-61
2021/01/07 08:51:42;;;;;;;30.10;13.07;;;0.60;99.90;;;;;;5020318;28;20484;-61
2021/01/07 08:54:18;;;;;;;34.80;18.60;;;0.60;99.90;;;;;;5024859;28;20154;-62
2021/01/07 08:56:49;;;;;;;37.10;17.42;;;0.60;99.90;;;;;;5025312;28;20351;-60
2021/01/07 08:59:23;;;;;;;31.42;17.02;;;0.70;99.90;;;;;;5024384;28;20079;-61
2021/01/07 09:01:52;;;;;;;24.77;13.02;;;0.80;99.90;;;;;;5027355;22;20055;-81
2021/01/07 09:04:30;;;;;;;22.80;11.82;;;0.80;99.90;;;;;;5043997;28;20053;-80
2021/01/07 09:07:17;;;;;;;22.23;11.82;;;0.70;99.90;;;;;;5037840;28;20512;-80
2021/01/07 09:09:56;;;;;;;23.15;11.68;;;0.80;99.90;;;;;;5041656;28;20037;-81
2021/01/07 09:12:33;;;;;;;25.05;12.50;;;0.80;99.90;;;;;;5044666;28;20056;-80
2021/01/07 09:15:10;;;;;;;21.25;11.77;;;0.80;99.90;;;;;;5045575;28;20043;-84
2021/01/07 09:17:41;;;;;;;24.58;12.50;;;0.90;99.90;;;;;;5044228;28;20048;-82
2021/01/07 09:20:10;;;;;;;26.90;11.90;;;0.80;99.90;;;;;;5044604;28;20382;-81
2021/01/07 09:22:36;;;;;;;26.23;12.30;;;0.70;99.90;;;;;;5045022;28;20048;-82
2021/01/07 09:25:03;;;;;;;26.98;13.15;;;0.80;99.90;;;;;;5045283;28;20067;-85
2021/01/07 09:27:29;;;;;;;27.15;13.10;;;0.80;99.90;;;;;;5044433;28;20033;-81
2021/01/07 09:29:54;;;;;;;24.40;12.27;;;0.60;99.90;;;;;;5035491;28;20459;-80
2021/01/07 09:32:20;;;;;;;34.03;16.92;;;0.50;99.90;;;;;;5033035;28;20041;-83
2021/01/07 09:34:55;;;;;;;25.17;11.85;;;0.50;99.90;;;;;;5027069;28;20045;-80
2021/01/07 09:37:24;;;;;;;22.00;11.18;;;0.50;99.90;;;;;;5033149;28;20038;-84
2021/01/07 09:39:52;;;;;;;17.08;10.32;;;0.50;99.90;;;;;;5025935;28;20118;-81
2021/01/07 09:42:20;;;;;;;23.60;11.25;;;0.50;99.90;;;;;;5026357;28;20037;-82
2021/01/07 09:44:48;;;;;;;22.33;10.82;;;0.50;99.90;;;;;;5042317;28;20045;-82
2021/01/07 09:47:15;;;;;;;20.63;10.23;;;0.60;99.90;;;;;;5027571;28;20034;-81
2021/01/07 09:49:41;;;;;;;20.25;11.20;;;0.60;99.90;;;;;;5034092;28;20068;-80
2021/01/07 09:52:07;;;;;;;21.00;9.90;;;0.60;99.90;;;;;;5046399;28;20450;-81
2021/01/07 09:54:33;;;;;;;18.10;10.32;;;0.60;99.90;;;;;;5058092;28;20040;-82
2021/01/07 09:57:01;;;;;;;16.85;8.63;;;0.60;99.90;;;;;;5033433;28;20033;-79
2021/01/07 09:59:29;;;;;;;17.77;9.00;;;0.70;99.90;;;;;;5028356;28;20034;-82
2021/01/07 10:01:56;;;;;;;20.42;9.55;;;0.80;99.90;;;;;;5023762;28;20053;-82
2021/01/07 10:04:23;;;;;;;20.33;9.30;;;0.90;99.90;;;;;;5026179;28;20052;-81
2021/01/07 10:06:49;;;;;;;19.60;10.88;;;0.90;99.90;;;;;;5028516;28;20069;-82
2021/01/07 10:09:15;;;;;;;18.27;9.80;;;1.00;99.90;;;;;;5027290;28;20045;-81
2021/01/07 10:11:41;;;;;;;20.35;10.40;;;1.10;99.90;;;;;;5034196;28;20029;-82
2021/01/07 10:14:06;;;;;;;16.58;9.27;;;1.10;99.90;;;;;;5045990;28;20040;-81
2021/01/07 10:16:33;;;;;;;19.17;9.82;;;1.10;99.90;;;;;;5040543;28;20044;-82
2021/01/07 10:18:59;;;;;;;19.08;11.00;;;1.00;99.90;;;;;;5035099;28;20080;-82
2021/01/07 10:21:25;;;;;;;21.75;9.45;;;1.00;99.90;;;;;;5045777;28;20174;-81
2021/01/07 10:23:52;;;;;;;22.52;10.07;;;1.00;99.90;;;;;;5032770;28;20041;-83
2021/01/07 10:26:19;;;;;;;17.63;9.32;;;1.10;99.90;;;;;;5026050;28;20128;-81
2021/01/07 10:28:46;;;;;;;19.42;9.85;;;1.20;99.90;;;;;;5027375;28;20750;-81
2021/01/07 10:31:18;;;;;;;21.38;10.05;;;1.20;99.90;;;;;;5026028;28;20526;-81
2021/01/07 10:33:47;;;;;;;18.77;10.40;;;1.20;99.90;;;;;;5030677;28;20548;-82
2021/01/07 10:36:14;;;;;;;23.88;12.50;;;1.10;99.90;;;;;;5042453;28;20041;-81
2021/01/07 10:38:41;;;;;;;35.33;17.92;;;1.00;99.90;;;;;;5046113;28;20056;-81
2021/01/07 10:41:07;;;;;;;20.58;11.38;;;1.20;99.90;;;;;;5043410;28;20478;-82
2021/01/07 10:43:34;;;;;;;24.15;11.90;;;1.20;99.90;;;;;;5039345;28;20056;-79
2021/01/07 10:46:01;;;;;;;21.38;10.27;;;1.30;99.90;;;;;;5033084;28;20156;-79
2021/01/07 10:48:27;;;;;;;19.65;9.98;;;1.30;99.90;;;;;;5025194;28;20053;-80
2021/01/07 10:50:53;;;;;;;17.80;10.05;;;1.30;99.90;;;;;;5042889;28;20067;-80
2021/01/07 10:53:40;;;;;;;20.40;11.20;;;1.40;99.90;;;;;;5045723;28;20540;-80
2021/01/07 10:56:18;;;;;;;19.48;10.07;;;1.50;99.90;;;;;;5025369;28;20072;-79
2021/01/07 10:59:02;;;;;;;19.02;10.30;;;1.70;99.90;;;;;;5025221;28;20151;-80
2021/01/07 11:02:04;;;;;;;16.83;9.70;;;1.70;99.90;;;;;;5029324;28;20238;-81
2021/01/07 11:05:15;;;;;;;16.27;9.57;;;1.80;99.90;;;;;;5026152;28;20045;-81
2021/01/07 11:07:49;;;;;;;17.90;9.90;;;1.50;99.90;;;;;;5039213;28;20036;-81
2021/01/07 11:10:16;;;;;;;22.50;10.45;;;1.50;99.90;;;;;;5044980;28;20139;-81
2021/01/07 11:12:53;;;;;;;18.33;9.65;;;1.40;99.90;;;;;;5042169;28;20041;-81
2021/01/07 11:15:23;;;;;;;24.27;9.88;;;1.40;99.90;;;;;;5043850;28;20490;-82
2021/01/07 11:17:54;;;;;;;17.83;9.63;;;1.20;99.90;;;;;;5040891;28;20036;-81
2021/01/07 11:20:25;;;;;;;29.27;14.70;;;1.20;99.90;;;;;;5037247;28;20041;-80
2021/01/07 11:22:52;;;;;;;26.10;14.07;;;1.30;99.90;;;;;;5039238;28;20110;-81
2021/01/07 11:25:18;;;;;;;23.77;12.85;;;1.30;99.90;;;;;;5039600;28;20054;-80
2021/01/07 11:27:45;;;;;;;18.35;9.82;;;1.30;99.90;;;;;;5024617;28;20091;-79
2021/01/07 11:30:12;;;;;;;19.65;10.30;;;1.40;99.90;;;;;;5024109;28;20057;-79
2021/01/07 11:32:39;;;;;;;21.52;11.15;;;1.30;99.90;;;;;;5025212;28;20045;-79
2021/01/07 11:35:09;;;;;;;21.42;10.35;;;1.20;99.90;;;;;;5024688;28;20037;-81
2021/01/07 11:37:53;;;;;;;16.27;8.95;;;1.10;99.90;;;;;;5032256;28;20052;-79
2021/01/07 11:40:38;;;;;;;16.90;8.95;;;1.20;99.90;;;;;;5044219;28;20044;-78
2021/01/07 11:43:29;;;;;;;21.15;10.27;;;1.30;99.90;;;;;;5044656;28;20083;-82
2021/01/07 11:45:59;;;;;;;14.30;8.40;;;1.20;99.90;;;;;;5038480;28;20059;-79
2021/01/07 11:48:25;;;;;;;20.60;10.32;;;1.20;99.90;;;;;;5034195;28;20120;-80
2021/01/07 11:51:03;;;;;;;17.65;9.77;;;1.10;99.90;;;;;;5045365;28;20056;-79
2021/01/07 11:53:29;;;;;;;21.98;10.88;;;1.20;99.90;;;;;;5048936;28;20045;-79
2021/01/07 11:56:00;;;;;;;23.30;9.70;;;1.30;99.90;;;;;;5046829;28;20037;-80
2021/01/07 11:58:27;;;;;;;21.33;10.20;;;1.10;99.90;;;;;;5045399;28;20041;-79
2021/01/07 12:01:02;;;;;;;17.05;9.05;;;1.10;99.90;;;;;;5046767;28;20091;-78
2021/01/07 12:03:30;;;;;;;17.30;9.25;;;1.10;99.90;;;;;;5045324;28;20052;-77
2021/01/07 12:05:59;;;;;;;17.50;9.23;;;1.10;99.90;;;;;;5044806;28;20072;-79
2021/01/07 12:08:51;;;;;;;15.00;8.65;;;1.10;99.90;;;;;;5028848;28;20120;-79
2021/01/07 12:11:23;;;;;;;14.88;8.07;;;1.10;99.90;;;;;;5028891;28;20033;-80
2021/01/07 12:13:53;;;;;;;14.65;7.75;;;1.20;99.90;;;;;;5036751;28;20486;-79
2021/01/07 12:16:33;;;;;;;15.20;8.82;;;1.10;99.90;;;;;;5041152;28;20051;-81
2021/01/07 12:19:01;;;;;;;14.40;7.22;;;1.10;99.90;;;;;;5031148;28;20044;-80
2021/01/07 12:21:27;;;;;;;14.70;7.30;;;1.20;99.90;;;;;;5029328;28;20046;-79
2021/01/07 12:23:54;;;;;;;13.15;6.80;;;1.20;99.90;;;;;;5045310;28;20053;-80
2021/01/07 12:26:20;;;;;;;11.65;5.95;;;1.30;99.90;;;;;;5048693;28;20040;-82
2021/01/07 12:28:51;;;;;;;11.77;6.60;;;1.40;99.90;;;;;;5042286;28;20049;-78
2021/01/07 12:31:18;;;;;;;10.52;6.20;;;1.50;99.90;;;;;;5047569;28;20592;-79
2021/01/07 12:33:50;;;;;;;10.38;5.97;;;1.60;99.90;;;;;;5048123;28;20040;-78
2021/01/07 12:36:36;;;;;;;9.30;5.22;;;1.60;99.90;;;;;;5039306;28;20037;-81
2021/01/07 12:39:31;;;;;;;9.35;5.28;;;1.70;99.90;;;;;;5046454;28;20781;-83
2021/01/07 12:41:57;;;;;;;9.70;5.30;;;1.70;99.90;;;;;;5041590;28;20048;-82
2021/01/07 12:44:24;;;;;;;11.15;5.75;;;1.80;99.90;;;;;;5040800;28;20045;-83